Archival Weather

Sydney Intl

Sydney, Australia (YSSY)

Report from: Wednesday, September 20, 2023 2:30 PM AEST
Current time: Saturday, June 22, 2024 8:44 AM AEST

Current weather – Weather history – Daily summaries
Weather forecast

Temperature34.0°C (93.2°F)
Heat index31.5°C (88.7°F)
Dew point1.0°C (33.8°F)
Winds 19 kts (9.8 m/s, 21.9 mph) Northwest (320°)
Clouds Sky clear
Altimeter29.68 in.Hg (1005 mB)
Relative humidity12 %
Density altitude2,540 ft. (774 m)
Remarks Ceiling and visibility OK
Flight conditions Visual Meteorological Conditions
Raw dataYSSY 200430Z 32019KT CAVOK 34/01 Q1005
An error has occurred. This application may no longer respond until reloaded. Reload 🗙